Overview Statistics Trail Chart Weather Telemetry Raw packets
 

This is the latest recevied weather packets stored in our database for station/object N7ZAP. If no packets are shown the sender has not sent any weather packets the latest 10 day(s).

<< 106 107 108 109 110 111 112 >>
Time Temp. Humidity Pressure Rain* Wind** Luminosity Snow
1787890029 27.78° C 30% 1023.6 hPa 0 mm - - -
1787889733 27.78° C 30% 1023.6 hPa 0 mm - - -
1787889420 27.78° C 30% 1023.6 hPa 0 mm - - -
1787889119 28.33° C 30% 1023.3 hPa 0 mm - - -
1787888814 28.33° C 30% 1023 hPa 0 mm - - -
1787888509 28.33° C 29% 1022.7 hPa 0 mm - - -
1787888209 28.33° C 30% 1022.8 hPa 0 mm - - -
1787887905 27.78° C 30% 1022.7 hPa 0 mm - - -
1787887600 27.78° C 31% 1023 hPa 0 mm - - -
1787887295 27.22° C 34% 1022.6 hPa 0 mm - - -
1787886990 27.22° C 34% 1022.7 hPa 0 mm - - -
1787886690 27.78° C 34% 1022.6 hPa 0 mm - - -
1787886385 27.78° C 34% 1022.5 hPa 0 mm - - -
1787886081 27.22° C 35% 1022.5 hPa 0 mm - - -
1787885780 26.67° C 36% 1022.6 hPa 0 mm - - -
1787885479 26.67° C 39% 1022.5 hPa 0 mm - - -
1787885179 26.67° C 38% 1022.1 hPa 0 mm - - -
1787884879 26.67° C 39% 1022 hPa 0 mm - - -
1787884579 26.67° C 41% 1022.3 hPa 0 mm - - -
1787884275 26.11° C 42% 1022.1 hPa 0 mm - - -
1787883970 26.11° C 42% 1022.6 hPa 0 mm - - -
1787883670 25° C 44% 1022.4 hPa 1.78 mm - - -
1787883366 26.11° C 49% 1022.6 hPa 1.78 mm - - -
1787883065 29.44° C 42% 1022.5 hPa 0 mm - - -
1787882761 30.56° C 31% 1022.1 hPa 0 mm - - -

* Rain latest hour (hover to see other rain measurements)
** Current wind speed in m/s (hover to see current wind gust speed)